createdAt,value
2023-05-21T00:04:52.208Z,77.23
2023-05-21T00:09:52.022Z,78.48
2023-05-21T00:14:52.041Z,78.21
2023-05-21T00:19:51.969Z,79.43
2023-05-21T00:24:51.870Z,79.93
2023-05-21T00:29:51.869Z,80.13
2023-05-21T00:34:54.821Z,78.92
2023-05-21T00:39:51.781Z,81.12
2023-05-21T00:44:51.660Z,80.62
2023-05-21T00:49:51.553Z,81.52
2023-05-21T00:54:51.794Z,81.23
2023-05-21T00:59:51.399Z,80.82
2023-05-21T01:04:51.453Z,81.26
2023-05-21T01:09:51.335Z,81.16
2023-05-21T01:14:51.271Z,80.55
2023-05-21T01:19:51.285Z,81.40
2023-05-21T01:24:51.086Z,81.81
2023-05-21T01:29:50.982Z,82.01
2023-05-21T01:34:53.938Z,81.60
2023-05-21T01:39:50.832Z,82.39
2023-05-21T01:44:50.790Z,82.39
2023-05-21T01:49:50.707Z,83.45
2023-05-21T01:54:50.673Z,82.29
2023-05-21T01:59:50.564Z,82.53
2023-05-21T02:04:50.561Z,83.69
2023-05-21T02:09:50.437Z,83.93
2023-05-21T02:14:50.489Z,84.64
2023-05-21T02:19:50.302Z,84.13
2023-05-21T02:24:50.261Z,86.10
2023-05-21T02:29:50.131Z,85.49
2023-05-21T02:34:53.121Z,86.35
2023-05-21T02:39:50.024Z,87.41
2023-05-21T02:44:50.024Z,86.55
2023-05-21T02:49:49.899Z,84.99
2023-05-21T02:54:49.866Z,85.09
2023-05-21T02:59:49.795Z,85.39
2023-05-21T03:04:49.777Z,85.09
2023-05-21T03:09:49.678Z,86.45
2023-05-21T03:14:49.823Z,86.04
2023-05-21T03:19:49.530Z,86.41
2023-05-21T03:24:49.544Z,85.35
2023-05-21T03:29:49.405Z,85.29
2023-05-21T03:34:52.381Z,86.10
2023-05-21T03:39:49.306Z,86.55
2023-05-21T03:44:49.242Z,85.70
2023-05-21T03:49:49.152Z,83.59
2023-05-21T03:54:49.176Z,83.75
2023-05-21T03:59:49.091Z,84.46
2023-05-21T04:04:49.154Z,83.91
2023-05-21T04:09:48.966Z,82.09
2023-05-21T04:14:48.857Z,83.61
2023-05-21T04:19:48.784Z,82.72
2023-05-21T04:24:48.917Z,84.42
2023-05-21T04:29:50.638Z,83.47
2023-05-21T04:34:51.585Z,82.52
2023-05-21T04:39:48.508Z,81.06
2023-05-21T04:44:48.457Z,78.42
2023-05-21T04:49:48.399Z,78.48
2023-05-21T04:54:48.340Z,77.87
2023-05-21T04:59:48.236Z,77.03
2023-05-21T05:04:48.181Z,76.28
2023-05-21T05:09:48.089Z,76.79
2023-05-21T05:14:48.048Z,75.74
2023-05-21T05:19:47.925Z,73.55
2023-05-21T05:24:47.912Z,71.20
2023-05-21T05:29:47.832Z,67.85
2023-05-21T05:34:50.805Z,63.17
2023-05-21T05:39:47.714Z,60.02
2023-05-21T05:44:47.872Z,56.09
2023-05-21T05:49:47.561Z,53.14
2023-05-21T05:54:47.525Z,50.01
2023-05-21T05:59:47.425Z,50.11
2023-05-21T06:04:47.400Z,50.31
2023-05-21T06:09:47.334Z,50.31
2023-05-21T06:14:47.281Z,48.01
2023-05-21T06:19:47.174Z,46.75
2023-05-21T06:24:47.159Z,49.96
2023-05-21T06:29:47.034Z,51.72
2023-05-21T06:34:50.017Z,49.29
2023-05-21T06:39:46.921Z,46.51
2023-05-21T06:44:46.925Z,45.89
2023-05-21T06:49:46.774Z,51.57
2023-05-21T06:54:46.911Z,50.76
2023-05-21T06:59:46.699Z,55.30
2023-05-21T07:04:46.753Z,59.31
2023-05-21T07:09:47.415Z,56.40
2023-05-21T07:14:46.772Z,54.50
2023-05-21T07:19:46.495Z,55.67
2023-05-21T07:24:54.181Z,56.51
2023-05-21T07:29:50.244Z,58.27
2023-05-21T07:34:49.240Z,56.15
2023-05-21T07:39:47.951Z,59.00
2023-05-21T07:44:46.131Z,57.24
2023-05-21T07:49:46.042Z,54.13
2023-05-21T07:54:46.059Z,53.68
2023-05-21T07:59:45.905Z,56.62
2023-05-21T08:04:45.995Z,57.02
2023-05-21T08:09:45.766Z,58.41
2023-05-21T08:14:45.799Z,58.64
2023-05-21T08:19:45.757Z,59.27
2023-05-21T08:24:45.616Z,59.47
2023-05-21T08:29:45.581Z,58.84
2023-05-21T08:34:48.499Z,58.41
2023-05-21T08:39:45.440Z,57.79
2023-05-21T08:44:45.475Z,59.86
2023-05-21T08:49:45.309Z,59.14
2023-05-21T08:54:45.360Z,57.56
2023-05-21T08:59:45.340Z,57.99
2023-05-21T09:04:45.177Z,58.84
2023-05-21T09:09:45.021Z,59.83
2023-05-21T09:14:45.047Z,58.88
2023-05-21T09:19:44.870Z,59.31
2023-05-21T09:24:44.889Z,59.68
2023-05-21T09:29:44.914Z,59.45
2023-05-21T09:34:47.787Z,59.35
2023-05-21T09:39:44.659Z,58.92
2023-05-21T09:44:44.585Z,56.98
2023-05-21T09:49:44.519Z,57.15
2023-05-21T09:54:45.597Z,57.08
2023-05-21T09:59:44.409Z,56.51
2023-05-21T10:04:44.460Z,58.07
2023-05-21T10:09:44.228Z,57.42
2023-05-21T10:14:44.310Z,56.70
2023-05-21T10:19:44.143Z,55.81
2023-05-21T10:24:44.098Z,56.28
2023-05-21T10:29:44.011Z,53.06
2023-05-21T10:34:47.009Z,53.03
2023-05-21T10:39:43.918Z,52.71
2023-05-21T10:44:44.014Z,52.12
2023-05-21T10:49:43.748Z,52.19
2023-05-21T10:54:43.736Z,53.20
2023-05-21T10:59:43.647Z,52.39
2023-05-21T11:04:43.596Z,50.36
2023-05-21T11:09:43.617Z,49.67
2023-05-21T11:14:43.658Z,49.22
2023-05-21T11:19:43.528Z,46.66
2023-05-21T11:24:45.547Z,47.50
2023-05-21T11:29:43.185Z,45.09
2023-05-21T11:34:46.246Z,45.04
2023-05-21T11:39:43.988Z,45.76
2023-05-21T11:44:43.125Z,42.91
2023-05-21T11:49:42.985Z,43.15
2023-05-21T11:54:42.955Z,42.46
2023-05-21T11:59:42.846Z,42.60
2023-05-21T12:04:42.787Z,39.20
2023-05-21T12:09:42.728Z,38.01
2023-05-21T12:14:42.680Z,36.16
2023-05-21T12:19:42.553Z,36.49
2023-05-21T12:24:42.586Z,38.26
2023-05-21T12:29:42.513Z,38.10
2023-05-21T12:34:45.622Z,34.22
2023-05-21T12:39:42.352Z,34.63
2023-05-21T12:44:42.357Z,35.39
2023-05-21T12:49:42.222Z,34.03
2023-05-21T12:54:42.799Z,35.53
2023-05-21T12:59:42.061Z,34.74
2023-05-21T13:04:42.501Z,34.01
2023-05-21T13:09:42.087Z,34.22
2023-05-21T13:14:42.906Z,33.03
2023-05-21T13:19:42.144Z,32.79
2023-05-21T13:24:41.897Z,32.04
2023-05-21T13:29:41.717Z,31.63
2023-05-21T13:34:44.721Z,31.41
2023-05-21T13:39:41.665Z,32.93
2023-05-21T13:44:41.904Z,30.95
2023-05-21T13:49:41.641Z,30.62
2023-05-21T13:54:41.476Z,30.14
2023-05-21T13:59:41.404Z,29.35
2023-05-21T14:04:41.816Z,29.77
2023-05-21T14:09:41.220Z,30.25
2023-05-21T14:14:41.149Z,31.41
2023-05-21T14:19:41.099Z,29.82
2023-05-21T14:31:37.287Z,30.60
2023-05-21T14:36:38.976Z,30.40
2023-05-21T14:41:37.205Z,30.50
2023-05-21T14:46:37.172Z,31.29
2023-05-21T14:51:37.165Z,33.07
2023-05-21T14:56:36.928Z,34.63
2023-05-21T15:01:37.043Z,34.61
2023-05-21T15:06:36.792Z,34.94
2023-05-21T15:11:36.759Z,35.66
2023-05-21T15:16:36.705Z,36.27
2023-05-21T15:21:39.690Z,35.96
2023-05-21T15:26:36.612Z,36.46
2023-05-21T15:31:36.622Z,36.48
2023-05-21T15:36:36.493Z,36.38
2023-05-21T15:41:36.428Z,36.78
2023-05-21T15:46:36.403Z,37.05
2023-05-21T15:51:36.357Z,37.07
2023-05-21T15:56:36.232Z,36.88
2023-05-21T16:01:36.163Z,36.98
2023-05-21T16:06:36.063Z,37.98
2023-05-21T16:11:35.965Z,38.85
2023-05-21T16:16:35.913Z,42.83
2023-05-21T16:21:38.868Z,46.23
2023-05-21T16:26:35.786Z,47.64
2023-05-21T16:31:35.744Z,48.88
2023-05-21T16:36:35.656Z,48.46
2023-05-21T16:41:35.613Z,48.85
2023-05-21T16:46:35.582Z,49.10
2023-05-21T16:51:35.483Z,48.36
2023-05-21T16:56:35.387Z,48.97
2023-05-21T17:01:35.382Z,48.97
2023-05-21T17:06:38.334Z,48.65
2023-05-21T17:11:36.139Z,49.17
2023-05-21T17:16:35.270Z,49.59
2023-05-21T17:21:38.047Z,49.07
2023-05-21T17:26:34.977Z,50.01
2023-05-21T17:31:34.986Z,49.52
2023-05-21T17:36:35.983Z,50.01
2023-05-21T17:41:34.798Z,50.01
2023-05-21T17:46:35.663Z,50.34
2023-05-21T17:51:34.724Z,50.83
2023-05-21T17:56:34.563Z,51.65
2023-05-21T18:01:34.643Z,51.84
2023-05-21T18:06:34.429Z,52.17
2023-05-21T18:11:34.441Z,52.26
2023-05-21T18:16:34.405Z,52.59
2023-05-21T18:21:37.282Z,52.72
2023-05-21T18:26:34.465Z,53.04
2023-05-21T18:31:34.199Z,52.64
2023-05-21T18:36:34.076Z,52.86
2023-05-21T18:41:34.086Z,52.54
2023-05-21T18:46:33.933Z,52.96
2023-05-21T18:51:34.192Z,53.16
2023-05-21T18:56:33.769Z,53.19
2023-05-21T19:01:33.846Z,53.06
2023-05-21T19:06:33.670Z,53.78
2023-05-21T19:11:33.672Z,54.08
2023-05-21T19:16:33.665Z,54.60
2023-05-21T19:21:36.513Z,54.50
2023-05-21T19:26:33.428Z,55.55
2023-05-21T19:31:33.371Z,55.76
2023-05-21T19:36:48.554Z,55.76
2023-05-21T19:41:34.265Z,55.43
2023-05-21T19:46:33.100Z,55.65
2023-05-21T19:51:33.085Z,55.46
2023-05-21T19:56:32.965Z,55.65
2023-05-21T20:01:33.107Z,55.46
2023-05-21T20:06:32.909Z,55.88
2023-05-21T20:11:32.824Z,56.10
2023-05-21T20:16:32.733Z,55.98
2023-05-21T20:21:35.666Z,55.68
2023-05-21T20:26:32.559Z,56.40
2023-05-21T20:31:32.687Z,56.10
2023-05-21T20:36:32.431Z,56.21
2023-05-21T20:41:32.455Z,56.63
2023-05-21T20:46:32.405Z,56.93
2023-05-21T20:51:32.252Z,57.03
2023-05-21T21:01:32.130Z,57.65
2023-05-21T21:06:32.080Z,57.65
2023-05-21T21:11:31.982Z,57.95
2023-05-21T21:16:31.960Z,57.56
2023-05-21T21:21:34.876Z,57.46
2023-05-21T21:26:31.828Z,59.11
2023-05-21T21:31:31.912Z,58.91
2023-05-21T21:36:31.602Z,59.86
2023-05-21T21:41:31.638Z,59.44
2023-05-21T21:46:31.548Z,59.64
2023-05-21T21:51:31.473Z,59.53
2023-05-21T21:56:31.334Z,59.66
2023-05-21T22:01:31.416Z,61.40
2023-05-21T22:06:31.253Z,62.95
2023-05-21T22:11:31.220Z,62.65
2023-05-21T22:16:31.149Z,62.45
2023-05-21T22:21:34.061Z,62.55
2023-05-21T22:26:31.007Z,63.28
2023-05-21T22:31:31.009Z,62.98
2023-05-21T22:36:30.851Z,63.08
2023-05-21T22:41:30.994Z,62.75
2023-05-21T22:46:30.763Z,63.08
2023-05-21T22:51:30.706Z,63.51
2023-05-21T22:56:30.576Z,63.92
2023-05-21T23:01:30.564Z,67.38
2023-05-21T23:06:30.457Z,68.72
2023-05-21T23:11:30.419Z,70.89
2023-05-21T23:16:30.360Z,72.47
2023-05-21T23:21:33.310Z,73.21
2023-05-21T23:26:30.200Z,73.72
2023-05-21T23:31:30.188Z,72.67
2023-05-21T23:36:30.090Z,72.27
2023-05-21T23:41:30.148Z,72.91
2023-05-21T23:46:30.073Z,71.23
2023-05-21T23:51:30.450Z,71.13
2023-05-21T23:56:30.061Z,70.79
